• Join FlightAware (Why Join?)
  • Login
  • US Flag 
01:29PM EDT


 

Airport Tracker/Info


-or-


 

Live Flight TrackerFlight Track Log ✈ FDX1254 ✈ 30-Apr-2013 ✈ KFWA - KMEM

Flight Track Log - Related Links

Times and Time Zones

All times are in EDT time to prevent confusion due to time zone crossing. See the FDX1254 flight status page for this flight to view local times or setup timezone preferences in your user account.

Time Position Orientation Groundspeed Altitude Reporting Facility
EDT Latitude Longitude Course Direction KTS MPH feet Rate Location/Type
11:26PM 40.7950 -85.4050 217° Southwest 383 441 12,100  Level FlightAware
11:26PM 40.7250 -85.4720 216° Southwest 383 441 12,100 2,640 Level FlightAware
11:27PM 40.6510 -85.5480 218° Southwest 420 483 16,300 4,560 Climbing FlightAware
11:28PM 40.5880 -85.6110 217° Southwest 424 488 18,200 2,700 Climbing FlightAware
11:28PM 40.5250 -85.6730 217° Southwest 431 496 19,900 2,400 Climbing FlightAware
11:29PM 40.4520 -85.7470 218° Southwest 442 509 21,600 2,040 Climbing FlightAware
11:30PM 40.3860 -85.8100 216° Southwest 452 520 22,800 1,620 Climbing FlightAware
11:31PM 40.3080 -85.8880 217° Southwest 470 541 23,900 1,320 Climbing FlightAware
11:31PM 40.2390 -85.9540 216° Southwest 487 560 24,700 1,620 Climbing FlightAware
11:32PM 40.1540 -86.0390 217° Southwest 489 563 26,200 1,680 Climbing FlightAware
11:33PM 40.0850 -86.1050 216° Southwest 493 567 27,100 1,440 Climbing FlightAware
11:33PM 40.0040 -86.1840 217° Southwest 499 574 28,300 1,860 Climbing FlightAware
11:34PM 39.9360 -86.2490 216° Southwest 497 572 29,600 2,220 Climbing FlightAware
11:35PM 39.8540 -86.3280 216° Southwest 492 566 31,300 2,280 Climbing FlightAware
11:36PM 39.7640 -86.4060 214° Southwest 485 558 33,100 1,860 Climbing FlightAware
11:36PM 39.6890 -86.4640 211° Southwest 487 560 34,000 600 Climbing FlightAware
11:37PM 39.6030 -86.5280 210° Southwest 486 559 34,000  Level FlightAware
11:38PM 39.5210 -86.5900 210° Southwest 487 560 34,000  Level FlightAware
11:38PM 39.4410 -86.6430 207° Southwest 485 558 34,000  Level FlightAware
11:39PM 39.3470 -86.6810 197° South 477 549 34,000  Level FlightAware
11:40PM 39.2640 -86.7140 197° South 475 547 34,000  Level FlightAware
11:40PM 39.1680 -86.7540 198° South 474 545 34,000  Level FlightAware
11:41PM 39.0820 -86.7880 197° South 475 547 34,000  Level FlightAware
11:42PM 38.9910 -86.8220 196° South 474 545 34,000  Level FlightAware
11:43PM 38.9060 -86.8550 197° South 474 545 34,000  Level FlightAware
11:43PM 38.8230 -86.8860 196° South 473 544 34,000  Level FlightAware
11:44PM 38.7260 -86.9210 196° South 473 544 34,000  Level FlightAware
11:45PM 38.6400 -86.9530 196° South 473 544 34,000  Level FlightAware
11:45PM 38.5490 -86.9860 196° South 473 544 34,000  Level FlightAware
11:46PM 38.4660 -87.0240 200° South 471 542 34,000  Level FlightAware
11:47PM 38.4010 -87.0980 222° Southwest 468 539 34,000  Level FlightAware
11:47PM 38.3430 -87.1800 228° Southwest 468 539 34,000  Level FlightAware
11:48PM 38.2770 -87.2750 229° Southwest 469 540 34,000  Level FlightAware
11:49PM 38.2210 -87.3530 228° Southwest 470 541 34,000  Level FlightAware
11:50PM 38.1540 -87.4470 228° Southwest 470 541 34,000  Level FlightAware
11:50PM 38.0950 -87.5290 228° Southwest 472 543 34,000  Level FlightAware
11:51PM 38.0290 -87.6210 228° Southwest 472 543 34,000  Level FlightAware
11:52PM 37.9690 -87.7060 228° Southwest 473 544 34,000  Level FlightAware
11:52PM 37.9100 -87.7880 228° Southwest 474 545 34,000  Level FlightAware
11:53PM 37.8470 -87.8780 228° Southwest 475 547 34,000  Level FlightAware
11:54PM 37.7900 -87.9620 229° Southwest 474 545 34,000  Level FlightAware
11:54PM 37.7240 -88.0580 229° Southwest 474 545 34,000  Level FlightAware
11:55PM 37.6650 -88.1430 229° Southwest 473 544 34,000  Level FlightAware
11:56PM 37.6070 -88.2260 229° Southwest 473 544 34,000  Level FlightAware
11:57PM 37.5430 -88.3170 228° Southwest 472 543 34,000  Level FlightAware
11:57PM 37.4850 -88.4000 229° Southwest 471 542 34,000  Level FlightAware
11:58PM 37.4280 -88.4820 229° Southwest 470 541 34,000  Level FlightAware
11:59PM 37.3640 -88.5720 228° Southwest 467 537 34,000  Level FlightAware
11:59PM 37.3050 -88.6570 229° Southwest 464 534 34,000  Level FlightAware
12:00AM 37.2430 -88.7450 229° Southwest 459 528 34,000  Level FlightAware
12:01AM 37.1850 -88.8240 227° Southwest 454 522 34,000  Level FlightAware
12:01AM 37.1420 -88.8870 229° Southwest 450 518 34,000  Level FlightAware
12:02AM 37.0840 -88.9680 228° Southwest 450 518 34,000  Level FlightAware
12:03AM 37.0370 -89.0340 228° Southwest 450 518 34,000  Level FlightAware
12:04AM 36.9380 -89.1720 228° Southwest 436 502 34,000  Level FlightAware
12:04AM 36.8920 -89.2340 227° Southwest 436 502 34,000  Level FlightAware
12:05AM 36.8350 -89.3140 228° Southwest 436 502 34,000  Level FlightAware
12:06AM 36.7890 -89.3780 228° Southwest 436 502 34,000  Level FlightAware
12:07AM 36.7430 -89.4410 228° Southwest 436 502 34,000  Level FlightAware
12:07AM 36.6970 -89.5050 228° Southwest 436 502 34,000  Level FlightAware
12:08AM 36.6510 -89.5680 228° Southwest 436 502 34,000  Level FlightAware
12:09AM 36.6050 -89.6320 228° Southwest 436 502 34,000  Level FlightAware
12:09AM 36.5480 -89.7110 228° Southwest 436 502 34,000  Level FlightAware
12:10AM 36.5020 -89.7750 228° Southwest 436 502 34,000  Level FlightAware
12:11AM 36.4560 -89.8380 228° Southwest 436 502 34,000  Level FlightAware
12:11AM 36.4100 -89.9010 228° Southwest 436 502 34,000  Level FlightAware
12:12AM 36.3640 -89.9650 228° Southwest 436 502 34,000  Level FlightAware
12:13AM 36.3070 -90.0440 228° Southwest 436 502 34,000  Level FlightAware
12:14AM 36.2610 -90.1070 228° Southwest 436 502 34,000 -15,060 Level FlightAware
12:14AM 35.9111 -89.7778 228° Southwest 380 437 13,200 -13,560 Descending Memphis Center
12:15AM 35.8133 -89.7964 189° South 369 425 10,800 -1,680 Descending Memphis Center
12:16AM 35.7278 -89.8175 191° South 347 399 9,900 -900 Descending Memphis Center
12:17AM 35.6550 -89.8358 192° South 301 346 9,000 -1,080 Descending Memphis Center
12:18AM 35.5800 -89.8517 190° South 275 316 7,800 -960 Descending Memphis Center
12:19AM 35.5153 -89.8469 177° South 261 300 7,100 -900 Descending Memphis Center
12:20AM 35.4525 -89.8319 169° South 240 276 6,000 -1,140 Descending Memphis Center
12:21AM 35.3942 -89.8172 168° South 220 253 4,900 -1,080 Descending Memphis Center
12:22AM 35.3378 -89.8022 168° South 220 253 3,900 -540 Descending Memphis Center
12:23AM 35.2814 -89.7897 170° South 220 253 3,900  Level Memphis Center
12:24AM 35.2231 -89.7775 170° South 220 253 3,900 -240 Level Memphis Center
12:25AM 35.1667 -89.7678 172° South 220 253 3,500 -600 Descending Memphis Center
12:27AM 35.0918 -89.8795 231° Southwest  Level FlightAware Approximate
12:29AM 35.0567 -89.9131 213° Southwest 168 193 1,000  Level Memphis Center
12:31AM 35.0424 -89.9767 255° West  Level Estimated
12:34AM 35.0333 -89.9667 213° Southwest  Level FlightAware Approximate
12:35AM 35.0424 -89.9767 213° Southwest  Level Estimated
12:38AM 35.0424 -89.9767 141° Southeast  Level Estimated
12:39AM 35.0424 -89.9767 141° Southeast  Level Estimated
12:40AM 35.0424 -89.9767 141° Southeast  Level Estimated
12:41AM 35.0424 -89.9767 141° Southeast  Level Estimated
12:42AM 35.0424 -89.9767 141° Southeast  Level Estimated
12:43AM 35.0424 -89.9767 141° Southeast  Level Estimated
12:44AM 35.0424 -89.9767 141° Southeast  Level Estimated
12:45AM 35.0424 -89.9767 141° Southeast  Level Estimated